createdAt,value
2022-08-17T00:01:27.471Z,4.80
2022-08-17T00:03:54.439Z,4.90
2022-08-17T00:06:27.425Z,4.17
2022-08-17T00:09:00.240Z,4.50
2022-08-17T00:11:31.824Z,4.90
2022-08-17T00:14:02.084Z,4.70
2022-08-17T00:16:55.480Z,4.50
2022-08-17T00:19:22.991Z,4.87
2022-08-17T00:24:36.624Z,5.00
2022-08-17T00:27:03.365Z,4.20
2022-08-17T00:29:29.834Z,4.50
2022-08-17T00:31:56.351Z,4.13
2022-08-17T00:34:22.836Z,4.87
2022-08-17T00:36:49.368Z,4.93
2022-08-17T00:39:15.860Z,4.77
2022-08-17T00:41:42.856Z,5.00
2022-08-17T00:44:09.662Z,4.67
2022-08-17T00:46:41.098Z,4.73
2022-08-17T00:49:08.745Z,4.53
2022-08-17T00:51:40.804Z,4.50
2022-08-17T00:54:13.204Z,4.83
2022-08-17T00:56:44.916Z,4.70
2022-08-17T00:59:14.429Z,5.10
2022-08-17T01:01:41.361Z,4.70
2022-08-17T01:04:08.643Z,4.93
2022-08-17T01:06:35.759Z,4.80
2022-08-17T01:09:03.358Z,4.90
2022-08-17T01:11:31.347Z,4.60
2022-08-17T01:13:58.259Z,5.00
2022-08-17T01:16:30.373Z,5.07
2022-08-17T01:19:03.720Z,5.50
2022-08-17T01:21:41.990Z,5.00
2022-08-17T01:24:08.587Z,5.27
2022-08-17T01:26:35.922Z,5.37
2022-08-17T01:29:04.736Z,5.60
2022-08-17T01:31:37.905Z,4.90
2022-08-17T01:34:09.963Z,5.93
2022-08-17T01:36:39.345Z,5.50
2022-08-17T01:39:07.597Z,5.70
2022-08-17T01:41:34.825Z,5.57
2022-08-17T01:44:03.850Z,5.60
2022-08-17T01:46:33.656Z,5.88
2022-08-17T01:49:01.052Z,5.67
2022-08-17T01:51:29.504Z,5.63
2022-08-17T01:53:58.939Z,5.87
2022-08-17T01:56:26.185Z,6.22
2022-08-17T01:58:52.703Z,5.77
2022-08-17T02:01:22.221Z,6.03
2022-08-17T02:03:59.137Z,5.82
2022-08-17T02:06:45.257Z,5.78
2022-08-17T02:09:19.968Z,5.43
2022-08-17T02:11:54.615Z,5.60
2022-08-17T02:14:21.423Z,5.18
2022-08-17T02:16:48.135Z,5.17
2022-08-17T02:19:15.883Z,5.30
2022-08-17T02:21:44.694Z,4.90
2022-08-17T02:24:15.338Z,4.88
2022-08-17T02:26:42.004Z,4.50
2022-08-17T02:29:08.505Z,5.10
2022-08-17T02:31:35.841Z,5.00
2022-08-17T02:34:04.729Z,5.00
2022-08-17T02:36:35.373Z,4.97
2022-08-17T02:39:04.748Z,5.40
2022-08-17T02:41:31.300Z,4.75
2022-08-17T02:43:57.972Z,5.50
2022-08-17T02:46:24.475Z,6.57
2022-08-17T02:48:51.000Z,8.10
2022-08-17T02:51:17.542Z,7.33
2022-08-17T02:53:44.985Z,7.80
2022-08-17T02:56:11.526Z,7.47
2022-08-17T02:58:38.364Z,8.07
2022-08-17T03:01:06.944Z,8.07
2022-08-17T03:03:34.549Z,7.87
2022-08-17T03:06:01.673Z,8.67
2022-08-17T03:08:28.480Z,8.37
2022-08-17T03:10:55.073Z,8.50
2022-08-17T03:13:21.913Z,8.30
2022-08-17T03:15:48.924Z,7.60
2022-08-17T03:18:19.213Z,8.40
2022-08-17T03:20:54.138Z,7.83
2022-08-17T03:23:23.674Z,7.45
2022-08-17T03:25:52.855Z,7.67
2022-08-17T03:28:20.297Z,7.68
2022-08-17T03:30:46.820Z,7.70
2022-08-17T03:33:13.363Z,7.60
2022-08-17T03:35:40.088Z,7.83
2022-08-17T03:38:07.947Z,7.30
2022-08-17T03:40:57.314Z,7.23
2022-08-17T03:43:22.628Z,6.80
2022-08-17T03:45:49.348Z,7.10
2022-08-17T03:48:18.573Z,7.25
2022-08-17T03:50:45.073Z,7.40
2022-08-17T03:53:15.619Z,7.30
2022-08-17T03:55:42.184Z,7.30
2022-08-17T03:58:08.678Z,6.97
2022-08-17T04:00:36.160Z,7.10
2022-08-17T04:03:06.329Z,6.73
2022-08-17T04:05:35.541Z,7.13
2022-08-17T04:08:02.128Z,7.57
2022-08-17T04:10:33.261Z,6.47
2022-08-17T04:13:07.984Z,7.30
2022-08-17T04:15:34.468Z,6.87
2022-08-17T04:18:01.036Z,6.90
2022-08-17T04:20:28.184Z,6.87
2022-08-17T04:23:07.038Z,7.60
2022-08-17T04:25:36.691Z,7.20
2022-08-17T04:28:05.370Z,7.22
2022-08-17T04:30:41.089Z,7.20
2022-08-17T04:33:27.542Z,7.50
2022-08-17T04:35:57.172Z,6.97
2022-08-17T04:38:34.570Z,7.03
2022-08-17T04:41:01.510Z,7.40
2022-08-17T04:43:29.990Z,7.37
2022-08-17T04:46:01.982Z,7.60
2022-08-17T04:48:36.296Z,7.10
2022-08-17T04:51:09.067Z,6.97
2022-08-17T04:53:36.031Z,6.70
2022-08-17T04:56:02.667Z,6.30
2022-08-17T04:58:29.220Z,6.93
2022-08-17T05:00:55.726Z,6.47
2022-08-17T05:03:22.352Z,6.10
2022-08-17T05:05:48.909Z,6.23
2022-08-17T05:08:17.835Z,5.70
2022-08-17T05:10:45.257Z,5.60
2022-08-17T05:13:17.628Z,6.13
2022-08-17T05:15:47.798Z,5.50
2022-08-17T05:18:15.412Z,5.87
2022-08-17T05:20:42.112Z,6.20
2022-08-17T05:23:12.098Z,5.80
2022-08-17T05:28:07.172Z,5.90
2022-08-17T05:30:34.729Z,6.03
2022-08-17T05:33:04.391Z,6.43
2022-08-17T05:35:33.607Z,5.90
2022-08-17T05:38:00.668Z,5.95
2022-08-17T05:40:28.224Z,7.10
2022-08-17T05:43:07.562Z,6.70
2022-08-17T05:45:55.555Z,6.40
2022-08-17T05:48:35.410Z,6.63
2022-08-17T05:51:34.062Z,6.20
2022-08-17T05:54:06.687Z,6.23
2022-08-17T05:57:10.489Z,6.83
2022-08-17T05:59:55.353Z,6.10
2022-08-17T06:02:36.282Z,6.13
2022-08-17T06:05:17.313Z,5.80
2022-08-17T06:07:54.147Z,6.33
2022-08-17T06:10:35.915Z,7.43
2022-08-17T06:13:21.423Z,6.33
2022-08-17T06:16:04.987Z,6.50
2022-08-17T06:19:01.272Z,6.13
2022-08-17T06:21:33.557Z,6.33
2022-08-17T06:24:08.625Z,7.50
2022-08-17T06:26:42.775Z,5.77
2022-08-17T06:29:28.703Z,6.50
2022-08-17T06:31:55.483Z,6.73
2022-08-17T06:34:22.012Z,6.13
2022-08-17T06:36:54.289Z,5.90
2022-08-17T06:39:36.961Z,4.80
2022-08-17T06:43:02.330Z,5.40
2022-08-17T06:45:35.828Z,4.53
2022-08-17T06:48:10.022Z,4.73
2022-08-17T06:50:45.951Z,5.10
2022-08-17T06:53:12.370Z,5.37
2022-08-17T06:56:03.061Z,4.90
2022-08-17T06:58:30.377Z,4.93
2022-08-17T07:00:59.147Z,4.67
2022-08-17T07:03:36.481Z,5.00
2022-08-17T07:06:13.605Z,4.70
2022-08-17T07:09:03.749Z,4.90
2022-08-17T07:11:33.634Z,4.93
2022-08-17T07:14:29.802Z,5.33
2022-08-17T07:16:58.065Z,4.50
2022-08-17T07:19:31.125Z,5.20
2022-08-17T07:22:06.261Z,4.97
2022-08-17T07:24:45.365Z,4.27
2022-08-17T07:27:20.752Z,3.95
2022-08-17T07:30:05.725Z,4.83
2022-08-17T07:32:40.646Z,4.70
2022-08-17T07:35:10.843Z,5.00
2022-08-17T07:37:49.386Z,5.07
2022-08-17T07:40:21.522Z,5.38
2022-08-17T07:43:07.641Z,5.30
2022-08-17T07:46:11.222Z,4.83
2022-08-17T07:48:39.365Z,4.87
2022-08-17T07:51:18.611Z,5.37
2022-08-17T07:53:45.421Z,4.67
2022-08-17T07:56:32.466Z,4.20
2022-08-17T07:59:23.336Z,4.50
2022-08-17T08:01:57.700Z,4.50
2022-08-17T08:05:02.573Z,4.87
2022-08-17T08:07:18.994Z,5.17
2022-08-17T08:09:59.848Z,5.00
2022-08-17T08:12:27.174Z,5.27
2022-08-17T08:15:14.483Z,4.97
2022-08-17T08:18:13.160Z,5.40
2022-08-17T08:20:53.100Z,5.38
2022-08-17T08:23:59.434Z,4.70
2022-08-17T08:26:45.412Z,4.83
2022-08-17T08:29:20.748Z,4.63
2022-08-17T08:32:08.060Z,5.07
2022-08-17T08:34:47.431Z,4.83
2022-08-17T08:37:50.669Z,4.43
2022-08-17T08:40:27.752Z,4.18
2022-08-17T08:43:28.509Z,5.80
2022-08-17T08:46:12.326Z,5.77
2022-08-17T08:49:18.353Z,5.33
2022-08-17T08:51:55.011Z,6.13
2022-08-17T08:54:42.746Z,5.37
2022-08-17T08:57:34.093Z,4.87
2022-08-17T09:00:18.480Z,5.10
2022-08-17T09:03:12.743Z,4.70
2022-08-17T09:05:57.797Z,5.20
2022-08-17T09:08:29.597Z,5.10
2022-08-17T09:11:04.282Z,5.17
2022-08-17T09:13:54.560Z,5.20
2022-08-17T09:16:22.058Z,4.63
2022-08-17T09:19:03.606Z,4.97
2022-08-17T09:21:35.027Z,5.50
2022-08-17T09:24:21.765Z,4.80
2022-08-17T09:27:09.083Z,5.00
2022-08-17T09:29:40.657Z,5.13
2022-08-17T09:32:27.913Z,5.70
2022-08-17T09:34:58.337Z,5.23
2022-08-17T09:37:40.346Z,4.87
2022-08-17T09:40:17.761Z,4.50
2022-08-17T09:42:48.243Z,5.07
2022-08-17T09:45:30.406Z,5.43
2022-08-17T09:48:11.436Z,5.87
2022-08-17T09:51:04.034Z,6.23
2022-08-17T09:53:31.995Z,6.40
2022-08-17T09:59:06.721Z,5.13
2022-08-17T10:01:38.119Z,5.33
2022-08-17T10:04:24.894Z,5.67
2022-08-17T10:07:23.029Z,5.13
2022-08-17T10:10:17.538Z,5.13
2022-08-17T10:13:09.618Z,4.83
2022-08-17T10:15:57.561Z,5.43
2022-08-17T10:18:33.281Z,5.27
2022-08-17T10:21:07.709Z,4.93
2022-08-17T10:23:34.376Z,4.87
2022-08-17T10:26:08.871Z,5.00
2022-08-17T10:28:40.560Z,4.20
2022-08-17T10:36:47.819Z,5.13
2022-08-17T10:39:52.771Z,5.63
2022-08-17T10:42:36.115Z,6.10
2022-08-17T10:45:17.287Z,5.20
2022-08-17T10:48:05.651Z,6.30
2022-08-17T10:53:33.389Z,5.40
2022-08-17T10:56:12.049Z,5.70
2022-08-17T10:58:53.386Z,4.72
2022-08-17T11:02:07.105Z,4.90
2022-08-17T11:04:45.766Z,5.00
2022-08-17T11:07:23.174Z,4.90
2022-08-17T11:09:55.967Z,4.43
2022-08-17T11:12:57.867Z,4.63
2022-08-17T11:15:44.353Z,4.90
2022-08-17T11:18:52.387Z,5.27
2022-08-17T11:21:21.718Z,4.93
2022-08-17T11:24:05.050Z,5.67
2022-08-17T11:26:36.699Z,5.20
2022-08-17T11:29:07.096Z,5.30
2022-08-17T11:31:43.488Z,5.50
2022-08-17T11:34:23.210Z,5.20
2022-08-17T11:37:08.497Z,5.20
2022-08-17T11:39:44.319Z,5.00
2022-08-17T11:42:31.484Z,5.37
2022-08-17T11:45:03.844Z,5.20
2022-08-17T11:47:30.279Z,5.43
2022-08-17T11:50:22.504Z,5.70
2022-08-17T11:52:52.611Z,5.20
2022-08-17T11:55:39.383Z,4.53
2022-08-17T11:58:28.893Z,4.00
2022-08-17T12:01:03.917Z,4.20
2022-08-17T12:03:32.728Z,4.20
2022-08-17T12:06:11.707Z,4.57
2022-08-17T12:08:41.155Z,4.97
2022-08-17T12:11:12.010Z,4.47
2022-08-17T12:13:52.308Z,4.50
2022-08-17T12:16:21.178Z,4.90
2022-08-17T12:19:02.563Z,5.35
2022-08-17T12:21:41.403Z,4.87
2022-08-17T12:24:07.968Z,4.57
2022-08-17T12:26:36.279Z,5.20
2022-08-17T12:29:05.734Z,4.47
2022-08-17T12:31:41.643Z,4.53
2022-08-17T12:34:16.361Z,4.60
2022-08-17T12:36:43.209Z,5.07
2022-08-17T12:39:13.290Z,5.43
2022-08-17T12:41:46.453Z,5.77
2022-08-17T12:44:16.683Z,5.00
2022-08-17T12:46:53.610Z,4.30
2022-08-17T12:49:35.867Z,5.20
2022-08-17T12:52:24.485Z,5.10
2022-08-17T12:54:53.687Z,5.00
2022-08-17T12:57:25.051Z,4.88
2022-08-17T13:00:02.097Z,4.60
2022-08-17T13:02:39.755Z,4.47
2022-08-17T13:05:08.996Z,5.40
2022-08-17T13:07:41.677Z,5.03
2022-08-17T13:10:08.682Z,5.10
2022-08-17T13:12:35.644Z,5.03
2022-08-17T13:15:02.419Z,5.27
2022-08-17T13:17:36.058Z,5.57
2022-08-17T13:20:04.690Z,5.23
2022-08-17T13:22:31.260Z,5.25
2022-08-17T13:25:01.747Z,4.40
2022-08-17T13:27:29.426Z,4.73
2022-08-17T13:30:02.381Z,4.50
2022-08-17T13:32:43.903Z,4.90
2022-08-17T13:35:40.571Z,5.17
2022-08-17T13:38:11.699Z,4.80
2022-08-17T13:40:50.743Z,4.67
2022-08-17T13:43:46.221Z,5.10
2022-08-17T13:46:19.206Z,5.23
2022-08-17T13:48:46.754Z,4.90
2022-08-17T13:51:17.440Z,4.77
2022-08-17T13:53:43.860Z,4.90
2022-08-17T13:56:33.185Z,5.27
2022-08-17T13:59:09.745Z,4.57
2022-08-17T14:01:53.394Z,4.70
2022-08-17T14:04:26.616Z,4.53
2022-08-17T14:07:11.164Z,4.10
2022-08-17T14:09:40.871Z,4.97
2022-08-17T14:12:12.220Z,4.40
2022-08-17T14:14:39.075Z,4.70
2022-08-17T14:17:05.765Z,4.33
2022-08-17T14:19:35.288Z,4.67
2022-08-17T14:22:02.086Z,4.57
2022-08-17T14:24:31.008Z,4.40
2022-08-17T14:29:26.803Z,4.50
2022-08-17T14:31:54.572Z,4.30
2022-08-17T14:34:22.645Z,4.33
2022-08-17T14:36:49.240Z,4.60
2022-08-17T14:39:18.038Z,4.87
2022-08-17T14:41:45.101Z,4.30
2022-08-17T14:44:12.083Z,4.43
2022-08-17T14:46:42.997Z,4.13
2022-08-17T14:49:12.568Z,4.10
2022-08-17T14:51:43.853Z,4.23
2022-08-17T14:54:33.119Z,4.60
2022-08-17T14:57:22.819Z,4.37
2022-08-17T14:59:54.190Z,4.47
2022-08-17T15:02:29.276Z,4.10
2022-08-17T15:05:01.883Z,4.50
2022-08-17T15:07:30.814Z,4.77
2022-08-17T15:09:58.694Z,4.23
2022-08-17T15:12:32.000Z,3.90
2022-08-17T15:14:59.701Z,4.10
2022-08-17T15:17:43.846Z,4.23
2022-08-17T15:20:26.737Z,3.97
2022-08-17T15:22:54.391Z,4.20
2022-08-17T15:25:22.012Z,4.03
2022-08-17T15:27:49.028Z,3.60
2022-08-17T15:30:16.271Z,4.13
2022-08-17T15:32:51.217Z,3.90
2022-08-17T15:35:27.330Z,3.85
2022-08-17T15:37:58.727Z,3.80
2022-08-17T15:40:34.943Z,3.80
2022-08-17T15:43:14.661Z,3.97
2022-08-17T15:45:41.297Z,3.77
2022-08-17T15:48:08.156Z,3.60
2022-08-17T15:50:35.322Z,3.97
2022-08-17T15:53:02.220Z,3.93
2022-08-17T15:55:29.968Z,3.70
2022-08-17T15:57:56.571Z,4.40
2022-08-17T16:00:23.332Z,4.13
2022-08-17T16:03:20.308Z,4.03
2022-08-17T16:05:36.729Z,4.13
2022-08-17T16:08:03.884Z,4.23
2022-08-17T16:10:35.386Z,4.47
2022-08-17T16:13:03.374Z,4.23
2022-08-17T16:15:29.996Z,4.77
2022-08-17T16:17:56.833Z,4.60
2022-08-17T16:20:23.407Z,5.20
2022-08-17T16:22:51.310Z,6.40
2022-08-17T16:25:22.208Z,6.73
2022-08-17T16:27:50.540Z,7.93
2022-08-17T16:30:18.022Z,9.27
2022-08-17T16:32:45.588Z,10.43
2022-08-17T16:35:13.283Z,10.63
2022-08-17T16:37:39.903Z,10.60
2022-08-17T16:40:09.729Z,10.80
2022-08-17T16:42:37.490Z,9.97
2022-08-17T16:45:27.556Z,10.50
2022-08-17T16:47:54.859Z,7.30
2022-08-17T16:50:23.719Z,5.63
2022-08-17T16:52:50.586Z,6.67
2022-08-17T16:55:20.512Z,5.53
2022-08-17T17:00:19.458Z,6.67
2022-08-17T17:02:47.880Z,6.77
2022-08-17T17:05:57.672Z,6.63
2022-08-17T17:08:44.389Z,7.03
2022-08-17T17:11:25.387Z,7.67
2022-08-17T17:13:55.573Z,8.20
2022-08-17T17:16:45.397Z,9.43
2022-08-17T17:19:38.309Z,10.40
2022-08-17T17:22:40.861Z,10.23
2022-08-17T17:25:10.158Z,7.77
2022-08-17T17:28:00.740Z,9.27
2022-08-17T17:31:02.090Z,8.83
2022-08-17T17:33:44.032Z,8.20
2022-08-17T17:36:31.580Z,7.13
2022-08-17T17:39:04.013Z,6.97
2022-08-17T17:41:37.299Z,6.87
2022-08-17T17:44:11.847Z,6.07
2022-08-17T17:46:42.349Z,6.37
2022-08-17T17:49:09.126Z,6.90
2022-08-17T17:52:14.567Z,6.97
2022-08-17T17:55:03.475Z,7.57
2022-08-17T17:57:38.361Z,10.40
2022-08-17T18:00:15.649Z,8.43
2022-08-17T18:02:52.083Z,8.93
2022-08-17T18:05:56.768Z,7.83
2022-08-17T18:08:35.662Z,8.90
2022-08-17T18:11:24.458Z,7.87
2022-08-17T18:14:44.966Z,7.30
2022-08-17T18:17:11.583Z,7.13
2022-08-17T18:19:38.109Z,6.17
2022-08-17T18:22:14.242Z,6.60
2022-08-17T18:24:43.776Z,6.20
2022-08-17T18:27:23.229Z,6.20
2022-08-17T18:29:52.180Z,8.35
2022-08-17T18:32:30.431Z,8.33
2022-08-17T18:35:00.802Z,7.17
2022-08-17T18:37:39.369Z,8.33
2022-08-17T18:40:25.623Z,7.17
2022-08-17T18:42:59.760Z,6.97
2022-08-17T18:45:43.508Z,6.27
2022-08-17T18:48:20.756Z,6.50
2022-08-17T18:50:47.556Z,9.03
2022-08-17T18:53:34.174Z,8.93
2022-08-17T18:56:30.760Z,8.87
2022-08-17T18:59:32.093Z,6.90
2022-08-17T19:02:19.436Z,6.40
2022-08-17T19:05:08.983Z,7.10
2022-08-17T19:07:39.959Z,6.60
2022-08-17T19:10:23.362Z,6.80
2022-08-17T19:13:00.682Z,6.20
2022-08-17T19:15:35.578Z,6.30
2022-08-17T19:18:14.719Z,6.27
2022-08-17T19:20:48.245Z,6.53
2022-08-17T19:23:21.025Z,8.17
2022-08-17T19:25:52.785Z,7.70
2022-08-17T19:28:23.289Z,6.20
2022-08-17T19:30:54.747Z,5.70
2022-08-17T19:33:21.392Z,6.00
2022-08-17T19:36:07.454Z,4.83
2022-08-17T19:38:33.896Z,6.10
2022-08-17T19:41:22.079Z,6.07
2022-08-17T19:44:14.865Z,5.80
2022-08-17T19:46:56.319Z,6.43
2022-08-17T19:49:52.805Z,6.63
2022-08-17T19:52:29.670Z,5.73
2022-08-17T19:55:02.758Z,5.13
2022-08-17T19:57:52.601Z,5.60
2022-08-17T20:00:19.412Z,5.47
2022-08-17T20:02:45.914Z,6.10
2022-08-17T20:05:16.338Z,5.27
2022-08-17T20:07:51.071Z,5.00
2022-08-17T20:10:34.877Z,5.67
2022-08-17T20:13:09.684Z,5.20
2022-08-17T20:15:40.482Z,5.03
2022-08-17T20:18:32.625Z,5.10
2022-08-17T20:21:26.703Z,5.37
2022-08-17T20:24:13.883Z,5.20
2022-08-17T20:27:09.676Z,5.60
2022-08-17T20:29:54.863Z,5.03
2022-08-17T20:32:27.144Z,5.47
2022-08-17T20:35:20.067Z,5.80
2022-08-17T20:38:02.516Z,5.27
2022-08-17T20:40:36.958Z,4.57
2022-08-17T20:43:43.229Z,4.20
2022-08-17T20:46:31.903Z,4.40
2022-08-17T20:49:25.117Z,4.40
2022-08-17T20:52:12.304Z,4.80
2022-08-17T20:54:52.460Z,4.10
2022-08-17T20:57:31.371Z,4.13
2022-08-17T21:00:00.929Z,4.63
2022-08-17T21:02:28.475Z,3.83
2022-08-17T21:05:07.288Z,4.43
2022-08-17T21:07:42.920Z,4.22
2022-08-17T21:10:17.214Z,3.90
2022-08-17T21:13:08.566Z,4.60
2022-08-17T21:16:12.132Z,4.53
2022-08-17T21:18:46.574Z,4.70
2022-08-17T21:21:37.969Z,4.77
2022-08-17T21:24:11.700Z,5.00
2022-08-17T21:26:50.357Z,4.37
2022-08-17T21:29:31.270Z,4.13
2022-08-17T21:31:59.509Z,4.43
2022-08-17T21:34:38.355Z,4.70
2022-08-17T21:37:44.077Z,4.30
2022-08-17T21:40:10.967Z,4.90
2022-08-17T21:42:44.729Z,4.37
2022-08-17T21:45:33.457Z,4.30
2022-08-17T21:48:09.752Z,4.53
2022-08-17T21:50:37.568Z,4.47
2022-08-17T21:53:05.458Z,4.20
2022-08-17T21:55:34.601Z,4.80
2022-08-17T21:58:13.884Z,4.43
2022-08-17T22:00:42.100Z,4.40
2022-08-17T22:03:22.929Z,3.73
2022-08-17T22:05:51.954Z,3.63
2022-08-17T22:08:21.603Z,4.05
2022-08-17T22:10:48.316Z,3.70
2022-08-17T22:13:24.729Z,4.30
2022-08-17T22:16:15.213Z,4.00
2022-08-17T22:18:54.189Z,4.37
2022-08-17T22:21:22.554Z,3.87
2022-08-17T22:24:07.213Z,4.07
2022-08-17T22:27:04.427Z,4.30
2022-08-17T22:29:49.354Z,3.93
2022-08-17T22:32:41.967Z,4.43
2022-08-17T22:35:39.355Z,4.07
2022-08-17T22:38:18.219Z,4.33
2022-08-17T22:40:50.400Z,4.70
2022-08-17T22:43:25.847Z,4.70
2022-08-17T22:45:58.256Z,4.53
2022-08-17T22:48:27.432Z,4.43
2022-08-17T22:51:12.609Z,4.80
2022-08-17T22:53:48.508Z,5.37
2022-08-17T22:56:22.628Z,5.65
2022-08-17T22:58:58.785Z,5.60
2022-08-17T23:01:33.449Z,6.27
2022-08-17T23:04:01.359Z,5.90
2022-08-17T23:06:28.827Z,6.17
2022-08-17T23:08:55.803Z,6.07
2022-08-17T23:11:36.875Z,5.67
2022-08-17T23:14:14.028Z,5.60
2022-08-17T23:16:41.574Z,5.57
2022-08-17T23:19:12.530Z,5.03
2022-08-17T23:21:39.413Z,4.93
2022-08-17T23:24:06.538Z,5.37
2022-08-17T23:26:34.371Z,5.23
2022-08-17T23:29:00.902Z,4.73
2022-08-17T23:31:27.409Z,5.60
2022-08-17T23:33:53.954Z,5.03
2022-08-17T23:36:20.458Z,4.10
2022-08-17T23:38:46.965Z,4.23
2022-08-17T23:41:15.339Z,3.80
2022-08-17T23:43:46.788Z,4.07
2022-08-17T23:46:13.462Z,4.20
2022-08-17T23:48:40.140Z,4.27
2022-08-17T23:51:13.055Z,4.17
2022-08-17T23:53:42.987Z,4.50
2022-08-17T23:58:39.650Z,4.27
